BAW918 EGKK-EDDL
Flight info
| Callsign | BAW918 |
|---|---|
| Flight time | N/A |
| Altitude | 37000 |
| Route | MIMF1M MIMFO Y312 DVR UL9 KONAN KOK DENOX SPI Y862 KENUM M170 NVO T857 BIKMU BIKM1A |
| Aircraft | A320/L-V/N |
Departure
| Time | 2026-04-17 08:50 |
|---|---|
| Airport | London Gatwick Airport (EGKK) |
Arrival
| Time | N/A |
|---|---|
| Airport | Düsseldorf Airport (EDDL) |
| Time | Latitude | Longitude | Altitude | Speed | Heading |
|---|---|---|---|---|---|
| 2026-04-17 08:19 | 51.15478 | -0.17029 | 186 ft | 0 kts | 347° |
| 2026-04-17 08:39 | 51.15476 | -0.17028 | 186 ft | 2 kts | 347° |
| 2026-04-17 08:40 | 51.15461 | -0.17022 | 185 ft | 2 kts | 347° |
| 2026-04-17 08:40 | 51.15446 | -0.17019 | 185 ft | 2 kts | 13° |
| 2026-04-17 08:40 | 51.15432 | -0.17028 | 185 ft | 2 kts | 38° |
| 2026-04-17 08:40 | 51.15422 | -0.17047 | 185 ft | 2 kts | 65° |
| 2026-04-17 08:41 | 51.15419 | -0.17058 | 185 ft | 1 kts | 79° |
| 2026-04-17 08:41 | 51.15418 | -0.17067 | 185 ft | 0 kts | 78° |
| 2026-04-17 08:43 | 51.15419 | -0.17064 | 185 ft | 1 kts | 78° |
| 2026-04-17 08:43 | 51.15425 | -0.17019 | 184 ft | 6 kts | 78° |
| 2026-04-17 08:43 | 51.15436 | -0.16936 | 185 ft | 7 kts | 78° |
| 2026-04-17 08:44 | 51.15447 | -0.16853 | 187 ft | 8 kts | 78° |
| 2026-04-17 08:44 | 51.15451 | -0.16774 | 190 ft | 6 kts | 103° |
| 2026-04-17 08:44 | 51.15424 | -0.16727 | 191 ft | 6 kts | 165° |
| 2026-04-17 08:44 | 51.15378 | -0.16711 | 191 ft | 5 kts | 166° |
| 2026-04-17 08:45 | 51.15334 | -0.16687 | 191 ft | 8 kts | 158° |
| 2026-04-17 08:45 | 51.15275 | -0.16664 | 192 ft | 9 kts | 167° |
| 2026-04-17 08:45 | 51.15254 | -0.16656 | 192 ft | 0 kts | 166° |
| 2026-04-17 08:46 | 51.15232 | -0.16648 | 193 ft | 7 kts | 167° |
| 2026-04-17 08:46 | 51.15174 | -0.16629 | 194 ft | 9 kts | 168° |
| 2026-04-17 08:47 | 51.15142 | -0.16656 | 193 ft | 3 kts | 256° |
| 2026-04-17 08:47 | 51.15141 | -0.16661 | 193 ft | 0 kts | 257° |
| 2026-04-17 08:48 | 51.15141 | -0.16662 | 193 ft | 0 kts | 257° |
| 2026-04-17 08:48 | 51.15140 | -0.16664 | 193 ft | 0 kts | 257° |
| 2026-04-17 08:49 | 51.15136 | -0.16691 | 192 ft | 11 kts | 256° |
| 2026-04-17 08:49 | 51.15063 | -0.17217 | 187 ft | 86 kts | 258° |
| 2026-04-17 08:49 | 51.14893 | -0.18454 | 196 ft | 146 kts | 256° |
| 2026-04-17 08:49 | 51.14667 | -0.20119 | 642 ft | 157 kts | 255° |
| 2026-04-17 08:50 | 51.14444 | -0.21795 | 1294 ft | 162 kts | 256° |
| 2026-04-17 08:50 | 51.14203 | -0.23621 | 1828 ft | 178 kts | 256° |
| 2026-04-17 08:50 | 51.13949 | -0.25599 | 2463 ft | 188 kts | 256° |
| 2026-04-17 08:50 | 51.13733 | -0.27696 | 2977 ft | 205 kts | 268° |
| 2026-04-17 08:51 | 51.14108 | -0.29896 | 3691 ft | 218 kts | 298° |
| 2026-04-17 08:51 | 51.15170 | -0.31577 | 4538 ft | 227 kts | 327° |
| 2026-04-17 08:51 | 51.16665 | -0.32196 | 5335 ft | 238 kts | 360° |
| 2026-04-17 08:51 | 51.18205 | -0.31440 | 6134 ft | 245 kts | 34° |
| 2026-04-17 08:52 | 51.19273 | -0.29456 | 6927 ft | 247 kts | 66° |
| 2026-04-17 08:52 | 51.19764 | -0.26933 | 7648 ft | 251 kts | 81° |
| 2026-04-17 08:52 | 51.20037 | -0.24265 | 8352 ft | 257 kts | 84° |
| 2026-04-17 08:52 | 51.20310 | -0.21453 | 9124 ft | 261 kts | 82° |
| 2026-04-17 08:53 | 51.20622 | -0.18627 | 9910 ft | 264 kts | 81° |
| 2026-04-17 08:53 | 51.20965 | -0.15766 | 10690 ft | 268 kts | 81° |
| 2026-04-17 08:53 | 51.21333 | -0.12888 | 11451 ft | 271 kts | 80° |
| 2026-04-17 08:53 | 51.21717 | -0.09958 | 12217 ft | 274 kts | 80° |
| 2026-04-17 08:54 | 51.22107 | -0.06986 | 12967 ft | 277 kts | 80° |
| 2026-04-17 08:54 | 51.22496 | -0.04009 | 13700 ft | 280 kts | 80° |
| 2026-04-17 08:54 | 51.22889 | -0.00992 | 14427 ft | 283 kts | 81° |
| 2026-04-17 08:54 | 51.23282 | 0.02036 | 15115 ft | 287 kts | 81° |
| 2026-04-17 08:55 | 51.23678 | 0.05096 | 15807 ft | 290 kts | 81° |
| 2026-04-17 08:55 | 51.24083 | 0.08236 | 16499 ft | 293 kts | 81° |
| 2026-04-17 08:55 | 51.24482 | 0.11339 | 17151 ft | 296 kts | 81° |
| 2026-04-17 08:55 | 51.24892 | 0.14530 | 17801 ft | 300 kts | 81° |
| 2026-04-17 08:56 | 51.25295 | 0.17774 | 18422 ft | 303 kts | 84° |
| 2026-04-17 08:56 | 51.25441 | 0.21084 | 19042 ft | 304 kts | 95° |
| 2026-04-17 08:56 | 51.25273 | 0.24388 | 19646 ft | 306 kts | 101° |
| 2026-04-17 08:56 | 51.25001 | 0.27739 | 20240 ft | 309 kts | 102° |
| 2026-04-17 08:57 | 51.24716 | 0.31091 | 20821 ft | 313 kts | 102° |
| 2026-04-17 08:57 | 51.24429 | 0.34574 | 21398 ft | 318 kts | 101° |
| 2026-04-17 08:57 | 51.24155 | 0.38031 | 21956 ft | 322 kts | 101° |
| 2026-04-17 08:57 | 51.23883 | 0.41542 | 22499 ft | 326 kts | 101° |
| 2026-04-17 08:58 | 51.23610 | 0.45091 | 23040 ft | 329 kts | 101° |
| 2026-04-17 08:58 | 51.23331 | 0.48714 | 23570 ft | 333 kts | 101° |
| 2026-04-17 08:58 | 51.23048 | 0.52364 | 24096 ft | 337 kts | 101° |
| 2026-04-17 08:58 | 51.22765 | 0.56018 | 24604 ft | 341 kts | 101° |
| 2026-04-17 08:59 | 51.22472 | 0.59769 | 25112 ft | 345 kts | 101° |
| 2026-04-17 08:59 | 51.22178 | 0.63536 | 25605 ft | 349 kts | 100° |
| 2026-04-17 08:59 | 51.21882 | 0.67321 | 26101 ft | 352 kts | 101° |
| 2026-04-17 08:59 | 51.21582 | 0.71154 | 26576 ft | 356 kts | 101° |
| 2026-04-17 09:00 | 51.21271 | 0.75084 | 27036 ft | 360 kts | 101° |
| 2026-04-17 09:00 | 51.20961 | 0.78994 | 27468 ft | 364 kts | 101° |
| 2026-04-17 09:00 | 51.20642 | 0.82969 | 27910 ft | 368 kts | 101° |
| 2026-04-17 09:00 | 51.20319 | 0.86990 | 28338 ft | 372 kts | 101° |
| 2026-04-17 09:01 | 51.19995 | 0.91030 | 28766 ft | 375 kts | 101° |
| 2026-04-17 09:01 | 51.19665 | 0.95117 | 29202 ft | 378 kts | 101° |
| 2026-04-17 09:01 | 51.19328 | 0.99262 | 29619 ft | 381 kts | 101° |
| 2026-04-17 09:01 | 51.18991 | 1.03383 | 30018 ft | 384 kts | 100° |
| 2026-04-17 09:02 | 51.18641 | 1.07625 | 30463 ft | 387 kts | 100° |
| 2026-04-17 09:02 | 51.18296 | 1.11812 | 30842 ft | 390 kts | 100° |
| 2026-04-17 09:02 | 51.17937 | 1.16132 | 31214 ft | 394 kts | 100° |
| 2026-04-17 09:02 | 51.17579 | 1.20417 | 31574 ft | 397 kts | 100° |
| 2026-04-17 09:03 | 51.17212 | 1.24796 | 31935 ft | 400 kts | 100° |
| 2026-04-17 09:03 | 51.16848 | 1.29123 | 32267 ft | 404 kts | 100° |
| 2026-04-17 09:03 | 51.16480 | 1.33490 | 32608 ft | 407 kts | 100° |
| 2026-04-17 09:03 | 51.16167 | 1.37939 | 32920 ft | 411 kts | 96° |
| 2026-04-17 09:04 | 51.15942 | 1.42450 | 33233 ft | 414 kts | 96° |
| 2026-04-17 09:04 | 51.15737 | 1.46920 | 33539 ft | 417 kts | 95° |
| 2026-04-17 09:04 | 51.15527 | 1.51486 | 33844 ft | 419 kts | 95° |
| 2026-04-17 09:04 | 51.15309 | 1.56098 | 34138 ft | 422 kts | 95° |
| 2026-04-17 09:05 | 51.15087 | 1.60731 | 34419 ft | 425 kts | 95° |
| 2026-04-17 09:05 | 51.14864 | 1.65260 | 34692 ft | 427 kts | 96° |
| 2026-04-17 09:05 | 51.14637 | 1.69879 | 34923 ft | 430 kts | 96° |
| 2026-04-17 09:05 | 51.14405 | 1.74526 | 35165 ft | 432 kts | 96° |
| 2026-04-17 09:06 | 51.14166 | 1.79247 | 35405 ft | 434 kts | 96° |
| 2026-04-17 09:06 | 51.13927 | 1.83939 | 35647 ft | 435 kts | 96° |
| 2026-04-17 09:06 | 51.13687 | 1.88625 | 35878 ft | 436 kts | 96° |
| 2026-04-17 09:06 | 51.13443 | 1.93308 | 36094 ft | 438 kts | 96° |
| 2026-04-17 09:07 | 51.13194 | 1.98058 | 36304 ft | 440 kts | 95° |
| 2026-04-17 09:07 | 51.12943 | 2.02847 | 36518 ft | 441 kts | 95° |
| 2026-04-17 09:07 | 51.12775 | 2.06045 | 36650 ft | 442 kts | 95° |